sensor_id;sensor_type;location;lat;lon;timestamp;temperature;humidity
50013;DHT22;35901;48.694;9.476;2022-10-17T00:02:15;9.70;99.90
50013;DHT22;35901;48.694;9.476;2022-10-17T00:04:41;9.70;99.90
50013;DHT22;35901;48.694;9.476;2022-10-17T00:07:06;9.70;99.90
50013;DHT22;35901;48.694;9.476;2022-10-17T00:09:32;9.80;99.90
50013;DHT22;35901;48.694;9.476;2022-10-17T00:11:58;9.90;99.90
50013;DHT22;35901;48.694;9.476;2022-10-17T00:14:23;10.00;99.90
50013;DHT22;35901;48.694;9.476;2022-10-17T00:16:49;10.10;99.90
50013;DHT22;35901;48.694;9.476;2022-10-17T00:19:15;10.10;99.90
50013;DHT22;35901;48.694;9.476;2022-10-17T00:21:40;10.10;99.90
50013;DHT22;35901;48.694;9.476;2022-10-17T00:24:06;10.10;99.90
50013;DHT22;35901;48.694;9.476;2022-10-17T00:26:32;10.00;99.90
50013;DHT22;35901;48.694;9.476;2022-10-17T00:28:57;10.10;99.90
50013;DHT22;35901;48.694;9.476;2022-10-17T00:31:23;10.00;99.90
50013;DHT22;35901;48.694;9.476;2022-10-17T00:33:50;10.00;99.90
50013;DHT22;35901;48.694;9.476;2022-10-17T00:39:06;9.80;99.90
50013;DHT22;35901;48.694;9.476;2022-10-17T00:41:32;9.60;99.90
50013;DHT22;35901;48.694;9.476;2022-10-17T00:44:05;9.60;99.90
50013;DHT22;35901;48.694;9.476;2022-10-17T00:46:37;9.60;99.90
50013;DHT22;35901;48.694;9.476;2022-10-17T00:49:05;9.70;99.90
50013;DHT22;35901;48.694;9.476;2022-10-17T00:51:46;10.00;99.90
50013;DHT22;35901;48.694;9.476;2022-10-17T00:54:15;10.10;99.90
50013;DHT22;35901;48.694;9.476;2022-10-17T00:56:42;10.20;99.90
50013;DHT22;35901;48.694;9.476;2022-10-17T00:59:10;10.20;99.90
50013;DHT22;35901;48.694;9.476;2022-10-17T01:01:40;10.20;99.90
50013;DHT22;35901;48.694;9.476;2022-10-17T01:04:07;10.10;99.90
50013;DHT22;35901;48.694;9.476;2022-10-17T01:13:49;9.40;99.90
50013;DHT22;35901;48.694;9.476;2022-10-17T01:16:30;9.20;99.90
50013;DHT22;35901;48.694;9.476;2022-10-17T01:32:54;9.40;99.90
50013;DHT22;35901;48.694;9.476;2022-10-17T01:36:09;9.30;99.90
50013;DHT22;35901;48.694;9.476;2022-10-17T01:38:32;9.20;99.90
50013;DHT22;35901;48.694;9.476;2022-10-17T01:43:46;8.90;99.90
50013;DHT22;35901;48.694;9.476;2022-10-17T01:46:30;9.00;99.90
50013;DHT22;35901;48.694;9.476;2022-10-17T01:48:59;8.90;99.90
50013;DHT22;35901;48.694;9.476;2022-10-17T01:51:57;8.90;99.90
50013;DHT22;35901;48.694;9.476;2022-10-17T01:54:37;8.90;99.90
50013;DHT22;35901;48.694;9.476;2022-10-17T01:57:08;9.00;99.90
50013;DHT22;35901;48.694;9.476;2022-10-17T01:59:38;8.90;99.90
50013;DHT22;35901;48.694;9.476;2022-10-17T02:02:05;8.90;99.90
50013;DHT22;35901;48.694;9.476;2022-10-17T02:04:34;8.80;99.90
50013;DHT22;35901;48.694;9.476;2022-10-17T02:07:11;8.70;99.90
50013;DHT22;35901;48.694;9.476;2022-10-17T02:21:57;8.50;99.90
50013;DHT22;35901;48.694;9.476;2022-10-17T02:24:38;8.50;99.90
50013;DHT22;35901;48.694;9.476;2022-10-17T02:27:32;8.50;99.90
50013;DHT22;35901;48.694;9.476;2022-10-17T02:30:28;8.60;99.90
50013;DHT22;35901;48.694;9.476;2022-10-17T02:33:03;8.70;99.90
50013;DHT22;35901;48.694;9.476;2022-10-17T02:35:35;8.70;99.90
50013;DHT22;35901;48.694;9.476;2022-10-17T02:38:04;8.90;99.90
50013;DHT22;35901;48.694;9.476;2022-10-17T02:40:45;9.00;99.90
50013;DHT22;35901;48.694;9.476;2022-10-17T02:43:12;9.00;99.90
50013;DHT22;35901;48.694;9.476;2022-10-17T02:45:39;9.00;99.90
50013;DHT22;35901;48.694;9.476;2022-10-17T02:48:25;9.00;99.90
50013;DHT22;35901;48.694;9.476;2022-10-17T02:56:25;8.60;99.90
50013;DHT22;35901;48.694;9.476;2022-10-17T02:58:57;8.40;99.90
50013;DHT22;35901;48.694;9.476;2022-10-17T03:01:24;8.20;99.90
50013;DHT22;35901;48.694;9.476;2022-10-17T03:04:10;8.10;99.90
50013;DHT22;35901;48.694;9.476;2022-10-17T03:06:37;8.00;99.90
50013;DHT22;35901;48.694;9.476;2022-10-17T03:09:26;8.00;99.90
50013;DHT22;35901;48.694;9.476;2022-10-17T03:11:52;8.00;99.90
50013;DHT22;35901;48.694;9.476;2022-10-17T03:14:18;8.00;99.90
50013;DHT22;35901;48.694;9.476;2022-10-17T03:16:44;8.00;99.90
50013;DHT22;35901;48.694;9.476;2022-10-17T03:19:09;8.10;99.90
50013;DHT22;35901;48.694;9.476;2022-10-17T03:21:35;8.30;99.90
50013;DHT22;35901;48.694;9.476;2022-10-17T03:24:03;8.40;99.90
50013;DHT22;35901;48.694;9.476;2022-10-17T03:26:29;8.40;99.90
50013;DHT22;35901;48.694;9.476;2022-10-17T03:28:55;8.30;99.90
50013;DHT22;35901;48.694;9.476;2022-10-17T03:31:22;8.30;99.90
50013;DHT22;35901;48.694;9.476;2022-10-17T03:33:48;8.30;99.90
50013;DHT22;35901;48.694;9.476;2022-10-17T03:36:16;8.30;99.90
50013;DHT22;35901;48.694;9.476;2022-10-17T03:38:43;8.20;99.90
50013;DHT22;35901;48.694;9.476;2022-10-17T03:44:56;8.10;99.90
50013;DHT22;35901;48.694;9.476;2022-10-17T03:47:22;8.00;99.90
50013;DHT22;35901;48.694;9.476;2022-10-17T03:49:49;8.00;99.90
50013;DHT22;35901;48.694;9.476;2022-10-17T03:52:14;8.00;99.90
50013;DHT22;35901;48.694;9.476;2022-10-17T03:54:40;7.90;99.90
50013;DHT22;35901;48.694;9.476;2022-10-17T03:57:06;7.90;99.90
50013;DHT22;35901;48.694;9.476;2022-10-17T03:59:32;7.90;99.90
50013;DHT22;35901;48.694;9.476;2022-10-17T04:02:03;8.10;99.90
50013;DHT22;35901;48.694;9.476;2022-10-17T04:04:29;8.20;99.90
50013;DHT22;35901;48.694;9.476;2022-10-17T04:06:54;8.30;99.90
50013;DHT22;35901;48.694;9.476;2022-10-17T04:09:20;8.40;99.90
50013;DHT22;35901;48.694;9.476;2022-10-17T04:12:05;8.40;99.90
50013;DHT22;35901;48.694;9.476;2022-10-17T04:14:32;8.40;99.90
50013;DHT22;35901;48.694;9.476;2022-10-17T04:16:58;8.40;99.90
50013;DHT22;35901;48.694;9.476;2022-10-17T04:19:26;8.40;99.90
50013;DHT22;35901;48.694;9.476;2022-10-17T04:21:52;8.30;99.90
50013;DHT22;35901;48.694;9.476;2022-10-17T04:24:19;8.30;99.90
50013;DHT22;35901;48.694;9.476;2022-10-17T04:26:51;8.10;99.90
50013;DHT22;35901;48.694;9.476;2022-10-17T04:29:20;8.00;99.90
50013;DHT22;35901;48.694;9.476;2022-10-17T04:31:49;8.00;99.90
50013;DHT22;35901;48.694;9.476;2022-10-17T04:34:20;8.00;99.90
50013;DHT22;35901;48.694;9.476;2022-10-17T04:36:47;8.00;99.90
50013;DHT22;35901;48.694;9.476;2022-10-17T04:39:13;8.00;99.90
50013;DHT22;35901;48.694;9.476;2022-10-17T04:44:55;8.20;99.90
50013;DHT22;35901;48.694;9.476;2022-10-17T04:47:23;8.30;99.90
50013;DHT22;35901;48.694;9.476;2022-10-17T04:49:49;8.40;99.90
50013;DHT22;35901;48.694;9.476;2022-10-17T04:52:15;8.50;99.90
50013;DHT22;35901;48.694;9.476;2022-10-17T04:54:47;8.50;99.90
50013;DHT22;35901;48.694;9.476;2022-10-17T04:57:13;8.60;99.90
50013;DHT22;35901;48.694;9.476;2022-10-17T04:59:41;8.60;99.90
50013;DHT22;35901;48.694;9.476;2022-10-17T05:02:24;8.60;99.90
50013;DHT22;35901;48.694;9.476;2022-10-17T05:04:51;8.50;99.90
50013;DHT22;35901;48.694;9.476;2022-10-17T05:07:16;8.40;99.90
50013;DHT22;35901;48.694;9.476;2022-10-17T05:09:44;8.30;99.90
50013;DHT22;35901;48.694;9.476;2022-10-17T05:12:11;8.20;99.90
50013;DHT22;35901;48.694;9.476;2022-10-17T05:14:40;8.20;99.90
50013;DHT22;35901;48.694;9.476;2022-10-17T05:17:07;8.10;99.90
50013;DHT22;35901;48.694;9.476;2022-10-17T05:19:33;8.10;99.90
50013;DHT22;35901;48.694;9.476;2022-10-17T05:21:59;8.10;99.90
50013;DHT22;35901;48.694;9.476;2022-10-17T05:24:25;8.00;99.90
50013;DHT22;35901;48.694;9.476;2022-10-17T05:26:50;8.00;99.90
50013;DHT22;35901;48.694;9.476;2022-10-17T05:29:16;8.00;99.90
50013;DHT22;35901;48.694;9.476;2022-10-17T05:31:48;8.00;99.90
50013;DHT22;35901;48.694;9.476;2022-10-17T05:34:13;8.00;99.90
50013;DHT22;35901;48.694;9.476;2022-10-17T05:36:40;8.00;99.90
50013;DHT22;35901;48.694;9.476;2022-10-17T05:39:06;8.00;99.90
50013;DHT22;35901;48.694;9.476;2022-10-17T05:41:34;8.00;99.90
50013;DHT22;35901;48.694;9.476;2022-10-17T05:47:15;7.90;99.90
50013;DHT22;35901;48.694;9.476;2022-10-17T05:49:41;7.90;99.90
50013;DHT22;35901;48.694;9.476;2022-10-17T05:52:06;7.90;99.90
50013;DHT22;35901;48.694;9.476;2022-10-17T05:54:41;7.90;99.90
50013;DHT22;35901;48.694;9.476;2022-10-17T05:57:07;7.90;99.90
50013;DHT22;35901;48.694;9.476;2022-10-17T05:59:34;7.90;99.90
50013;DHT22;35901;48.694;9.476;2022-10-17T06:02:12;8.00;99.90
50013;DHT22;35901;48.694;9.476;2022-10-17T06:04:38;7.90;99.90
50013;DHT22;35901;48.694;9.476;2022-10-17T06:07:13;7.90;99.90
50013;DHT22;35901;48.694;9.476;2022-10-17T06:09:39;8.00;99.90
50013;DHT22;35901;48.694;9.476;2022-10-17T06:12:06;8.00;99.90
50013;DHT22;35901;48.694;9.476;2022-10-17T06:18:19;8.20;99.90
50013;DHT22;35901;48.694;9.476;2022-10-17T06:20:45;8.40;99.90
50013;DHT22;35901;48.694;9.476;2022-10-17T06:23:11;8.60;99.90
50013;DHT22;35901;48.694;9.476;2022-10-17T06:26:03;8.90;99.90
50013;DHT22;35901;48.694;9.476;2022-10-17T06:28:32;9.10;99.90
50013;DHT22;35901;48.694;9.476;2022-10-17T06:30:57;9.30;99.90
50013;DHT22;35901;48.694;9.476;2022-10-17T06:33:23;9.30;99.90
50013;DHT22;35901;48.694;9.476;2022-10-17T06:35:53;9.50;99.90
50013;DHT22;35901;48.694;9.476;2022-10-17T06:38:20;9.60;99.90
50013;DHT22;35901;48.694;9.476;2022-10-17T06:40:49;9.80;99.90
50013;DHT22;35901;48.694;9.476;2022-10-17T06:47:11;10.30;99.90
50013;DHT22;35901;48.694;9.476;2022-10-17T06:49:38;11.20;99.90
50013;DHT22;35901;48.694;9.476;2022-10-17T06:52:27;11.50;99.90
50013;DHT22;35901;48.694;9.476;2022-10-17T06:55:16;11.50;99.90
50013;DHT22;35901;48.694;9.476;2022-10-17T06:57:54;11.60;99.90
50013;DHT22;35901;48.694;9.476;2022-10-17T07:00:31;11.80;99.90
50013;DHT22;35901;48.694;9.476;2022-10-17T07:02:57;12.00;99.90
50013;DHT22;35901;48.694;9.476;2022-10-17T07:05:23;12.00;99.90
50013;DHT22;35901;48.694;9.476;2022-10-17T07:07:48;12.10;99.90
50013;DHT22;35901;48.694;9.476;2022-10-17T07:10:14;12.40;99.90
50013;DHT22;35901;48.694;9.476;2022-10-17T07:16:28;13.40;99.90
50013;DHT22;35901;48.694;9.476;2022-10-17T07:19:01;13.80;99.90
50013;DHT22;35901;48.694;9.476;2022-10-17T07:21:32;13.80;99.90
50013;DHT22;35901;48.694;9.476;2022-10-17T07:23:58;13.90;99.90
50013;DHT22;35901;48.694;9.476;2022-10-17T07:26:24;14.30;99.90
50013;DHT22;35901;48.694;9.476;2022-10-17T07:28:52;14.70;99.90
50013;DHT22;35901;48.694;9.476;2022-10-17T07:31:29;15.00;99.90
50013;DHT22;35901;48.694;9.476;2022-10-17T07:33:55;15.50;99.90
50013;DHT22;35901;48.694;9.476;2022-10-17T07:36:20;15.70;99.90
50013;DHT22;35901;48.694;9.476;2022-10-17T07:38:46;15.70;99.90
50013;DHT22;35901;48.694;9.476;2022-10-17T07:41:12;15.60;99.90
50013;DHT22;35901;48.694;9.476;2022-10-17T07:43:39;15.60;99.90
50013;DHT22;35901;48.694;9.476;2022-10-17T07:46:06;15.60;99.90
50013;DHT22;35901;48.694;9.476;2022-10-17T07:48:33;15.80;99.90
50013;DHT22;35901;48.694;9.476;2022-10-17T07:51:03;16.00;99.90
50013;DHT22;35901;48.694;9.476;2022-10-17T07:53:29;16.10;99.90
50013;DHT22;35901;48.694;9.476;2022-10-17T07:55:55;16.20;99.90
50013;DHT22;35901;48.694;9.476;2022-10-17T07:58:20;16.30;99.90
50013;DHT22;35901;48.694;9.476;2022-10-17T08:00:46;16.70;99.90
50013;DHT22;35901;48.694;9.476;2022-10-17T08:03:13;17.00;99.90
50013;DHT22;35901;48.694;9.476;2022-10-17T08:05:39;17.40;99.90
50013;DHT22;35901;48.694;9.476;2022-10-17T08:08:04;17.70;99.90
50013;DHT22;35901;48.694;9.476;2022-10-17T08:10:30;17.80;99.90
50013;DHT22;35901;48.694;9.476;2022-10-17T08:12:57;17.90;99.90
50013;DHT22;35901;48.694;9.476;2022-10-17T08:15:24;17.80;99.90
50013;DHT22;35901;48.694;9.476;2022-10-17T08:17:50;17.90;99.90
50013;DHT22;35901;48.694;9.476;2022-10-17T08:20:16;18.00;99.90
50013;DHT22;35901;48.694;9.476;2022-10-17T08:22:42;18.00;99.90
50013;DHT22;35901;48.694;9.476;2022-10-17T08:25:08;17.80;99.90
50013;DHT22;35901;48.694;9.476;2022-10-17T08:27:34;17.60;99.90
50013;DHT22;35901;48.694;9.476;2022-10-17T08:30:00;17.40;99.90
50013;DHT22;35901;48.694;9.476;2022-10-17T08:32:26;17.30;99.90
50013;DHT22;35901;48.694;9.476;2022-10-17T08:34:53;17.50;99.90
50013;DHT22;35901;48.694;9.476;2022-10-17T08:37:20;17.60;99.90
50013;DHT22;35901;48.694;9.476;2022-10-17T08:39:46;17.70;99.90
50013;DHT22;35901;48.694;9.476;2022-10-17T08:42:22;17.80;99.90
50013;DHT22;35901;48.694;9.476;2022-10-17T08:47:47;18.30;99.90
50013;DHT22;35901;48.694;9.476;2022-10-17T08:53:03;18.50;99.90
50013;DHT22;35901;48.694;9.476;2022-10-17T08:55:39;18.60;99.90
50013;DHT22;35901;48.694;9.476;2022-10-17T08:58:32;18.60;99.90
50013;DHT22;35901;48.694;9.476;2022-10-17T09:01:13;18.50;99.90
50013;DHT22;35901;48.694;9.476;2022-10-17T09:04:04;18.60;99.90
50013;DHT22;35901;48.694;9.476;2022-10-17T09:06:42;18.70;99.90
50013;DHT22;35901;48.694;9.476;2022-10-17T09:09:21;19.00;99.90
50013;DHT22;35901;48.694;9.476;2022-10-17T09:12:17;19.30;99.90
50013;DHT22;35901;48.694;9.476;2022-10-17T09:17:50;19.70;99.90
50013;DHT22;35901;48.694;9.476;2022-10-17T09:20:32;19.80;99.90
50013;DHT22;35901;48.694;9.476;2022-10-17T09:23:11;20.00;99.90
50013;DHT22;35901;48.694;9.476;2022-10-17T09:25:43;20.20;99.90
50013;DHT22;35901;48.694;9.476;2022-10-17T09:30:43;20.60;99.90
50013;DHT22;35901;48.694;9.476;2022-10-17T09:35:37;20.70;99.90
50013;DHT22;35901;48.694;9.476;2022-10-17T09:38:03;20.90;99.90
50013;DHT22;35901;48.694;9.476;2022-10-17T09:40:33;21.00;99.90
50013;DHT22;35901;48.694;9.476;2022-10-17T09:43:02;21.00;99.90
50013;DHT22;35901;48.694;9.476;2022-10-17T09:45:32;20.90;99.90
50013;DHT22;35901;48.694;9.476;2022-10-17T09:48:21;20.90;99.90
50013;DHT22;35901;48.694;9.476;2022-10-17T09:50:48;20.80;99.90
50013;DHT22;35901;48.694;9.476;2022-10-17T09:53:19;20.80;99.90
50013;DHT22;35901;48.694;9.476;2022-10-17T09:55:49;21.00;99.90
50013;DHT22;35901;48.694;9.476;2022-10-17T09:58:15;21.00;99.90
50013;DHT22;35901;48.694;9.476;2022-10-17T10:00:44;21.10;99.90
50013;DHT22;35901;48.694;9.476;2022-10-17T10:05:59;21.50;99.90
50013;DHT22;35901;48.694;9.476;2022-10-17T10:08:46;21.80;99.90
50013;DHT22;35901;48.694;9.476;2022-10-17T10:11:15;21.90;99.90
50013;DHT22;35901;48.694;9.476;2022-10-17T10:13:42;22.30;99.90
50013;DHT22;35901;48.694;9.476;2022-10-17T10:16:29;22.30;99.10
50013;DHT22;35901;48.694;9.476;2022-10-17T10:18:55;22.10;99.90
50013;DHT22;35901;48.694;9.476;2022-10-17T10:21:26;22.00;99.70
50013;DHT22;35901;48.694;9.476;2022-10-17T10:24:11;22.10;99.80
50013;DHT22;35901;48.694;9.476;2022-10-17T10:29:18;22.50;98.70
50013;DHT22;35901;48.694;9.476;2022-10-17T10:31:44;22.60;98.70
50013;DHT22;35901;48.694;9.476;2022-10-17T10:34:18;22.60;99.20
50013;DHT22;35901;48.694;9.476;2022-10-17T10:36:52;22.60;99.10
50013;DHT22;35901;48.694;9.476;2022-10-17T10:42:28;23.00;99.10
50013;DHT22;35901;48.694;9.476;2022-10-17T10:45:00;23.00;97.70
50013;DHT22;35901;48.694;9.476;2022-10-17T10:47:28;22.80;98.10
50013;DHT22;35901;48.694;9.476;2022-10-17T10:50:23;22.80;98.20
50013;DHT22;35901;48.694;9.476;2022-10-17T10:53:06;22.80;98.70
50013;DHT22;35901;48.694;9.476;2022-10-17T10:55:42;22.90;98.60
50013;DHT22;35901;48.694;9.476;2022-10-17T11:01:14;23.10;98.70
50013;DHT22;35901;48.694;9.476;2022-10-17T11:03:56;23.20;98.10
50013;DHT22;35901;48.694;9.476;2022-10-17T11:06:28;23.10;98.00
50013;DHT22;35901;48.694;9.476;2022-10-17T11:11:34;23.10;96.90
50013;DHT22;35901;48.694;9.476;2022-10-17T11:17:20;23.10;97.60
50013;DHT22;35901;48.694;9.476;2022-10-17T11:22:39;23.30;97.60
50013;DHT22;35901;48.694;9.476;2022-10-17T11:25:21;23.20;97.80
50013;DHT22;35901;48.694;9.476;2022-10-17T11:27:52;23.30;97.80
50013;DHT22;35901;48.694;9.476;2022-10-17T11:30:17;23.70;97.90
50013;DHT22;35901;48.694;9.476;2022-10-17T11:32:50;23.70;98.20
50013;DHT22;35901;48.694;9.476;2022-10-17T11:38:05;23.90;96.70
50013;DHT22;35901;48.694;9.476;2022-10-17T11:40:34;23.80;97.30
50013;DHT22;35901;48.694;9.476;2022-10-17T11:43:12;24.00;97.40
50013;DHT22;35901;48.694;9.476;2022-10-17T11:45:44;24.20;96.90
50013;DHT22;35901;48.694;9.476;2022-10-17T11:53:49;24.40;96.90
50013;DHT22;35901;48.694;9.476;2022-10-17T11:56:34;24.50;96.70
50013;DHT22;35901;48.694;9.476;2022-10-17T12:02:03;24.20;96.70
50013;DHT22;35901;48.694;9.476;2022-10-17T12:10:15;24.40;96.40
50013;DHT22;35901;48.694;9.476;2022-10-17T12:12:43;24.70;95.50
50013;DHT22;35901;48.694;9.476;2022-10-17T12:15:26;24.40;96.20
50013;DHT22;35901;48.694;9.476;2022-10-17T12:18:00;24.20;96.50
50013;DHT22;35901;48.694;9.476;2022-10-17T12:20:31;24.10;96.00
50013;DHT22;35901;48.694;9.476;2022-10-17T12:25:36;24.20;95.00
50013;DHT22;35901;48.694;9.476;2022-10-17T12:28:13;24.30;93.80
50013;DHT22;35901;48.694;9.476;2022-10-17T12:30:55;24.30;92.10
50013;DHT22;35901;48.694;9.476;2022-10-17T12:33:29;24.30;91.80
50013;DHT22;35901;48.694;9.476;2022-10-17T12:49:37;24.60;90.80
50013;DHT22;35901;48.694;9.476;2022-10-17T12:54:56;24.60;90.10
50013;DHT22;35901;48.694;9.476;2022-10-17T12:57:37;24.60;90.60
50013;DHT22;35901;48.694;9.476;2022-10-17T13:03:01;24.70;90.90
50013;DHT22;35901;48.694;9.476;2022-10-17T13:05:31;24.70;90.80
50013;DHT22;35901;48.694;9.476;2022-10-17T13:07:59;24.80;90.50
50013;DHT22;35901;48.694;9.476;2022-10-17T13:10:29;25.00;90.20
50013;DHT22;35901;48.694;9.476;2022-10-17T13:13:11;25.00;87.90
50013;DHT22;35901;48.694;9.476;2022-10-17T13:15:48;25.10;85.70
50013;DHT22;35901;48.694;9.476;2022-10-17T13:18:32;25.00;85.90
50013;DHT22;35901;48.694;9.476;2022-10-17T13:21:05;25.00;83.70
50013;DHT22;35901;48.694;9.476;2022-10-17T13:23:34;25.00;83.20
50013;DHT22;35901;48.694;9.476;2022-10-17T13:28:38;24.80;84.20
50013;DHT22;35901;48.694;9.476;2022-10-17T13:31:03;24.70;83.20
50013;DHT22;35901;48.694;9.476;2022-10-17T13:33:36;24.70;82.70
50013;DHT22;35901;48.694;9.476;2022-10-17T13:36:06;24.70;82.30
50013;DHT22;35901;48.694;9.476;2022-10-17T13:38:33;24.70;82.50
50013;DHT22;35901;48.694;9.476;2022-10-17T13:41:01;24.60;82.00
50013;DHT22;35901;48.694;9.476;2022-10-17T13:43:28;24.60;82.60
50013;DHT22;35901;48.694;9.476;2022-10-17T13:46:00;24.60;83.00
50013;DHT22;35901;48.694;9.476;2022-10-17T13:48:31;24.60;83.60
50013;DHT22;35901;48.694;9.476;2022-10-17T13:50:59;24.60;83.90
50013;DHT22;35901;48.694;9.476;2022-10-17T13:53:38;24.50;84.50
50013;DHT22;35901;48.694;9.476;2022-10-17T13:56:21;24.50;84.60
50013;DHT22;35901;48.694;9.476;2022-10-17T13:58:50;24.50;84.30
50013;DHT22;35901;48.694;9.476;2022-10-17T14:01:17;24.50;84.60
50013;DHT22;35901;48.694;9.476;2022-10-17T14:03:44;24.50;84.50
50013;DHT22;35901;48.694;9.476;2022-10-17T14:06:22;24.50;85.10
50013;DHT22;35901;48.694;9.476;2022-10-17T14:09:00;24.50;84.80
50013;DHT22;35901;48.694;9.476;2022-10-17T14:11:40;24.50;83.20
50013;DHT22;35901;48.694;9.476;2022-10-17T14:14:19;24.40;82.00
50013;DHT22;35901;48.694;9.476;2022-10-17T14:16:46;24.40;82.20
50013;DHT22;35901;48.694;9.476;2022-10-17T14:19:31;24.40;81.40
50013;DHT22;35901;48.694;9.476;2022-10-17T14:22:36;24.30;80.90
50013;DHT22;35901;48.694;9.476;2022-10-17T14:25:02;24.20;81.50
50013;DHT22;35901;48.694;9.476;2022-10-17T14:27:32;24.20;82.00
50013;DHT22;35901;48.694;9.476;2022-10-17T14:30:04;24.20;81.10
50013;DHT22;35901;48.694;9.476;2022-10-17T14:32:33;24.10;81.30
50013;DHT22;35901;48.694;9.476;2022-10-17T14:35:01;24.10;81.60
50013;DHT22;35901;48.694;9.476;2022-10-17T14:37:45;24.10;82.60
50013;DHT22;35901;48.694;9.476;2022-10-17T14:40:20;23.90;86.00
50013;DHT22;35901;48.694;9.476;2022-10-17T14:42:49;23.60;90.00
50013;DHT22;35901;48.694;9.476;2022-10-17T14:45:34;23.30;90.70
50013;DHT22;35901;48.694;9.476;2022-10-17T14:48:05;23.10;91.00
50013;DHT22;35901;48.694;9.476;2022-10-17T14:50:31;23.00;91.30
50013;DHT22;35901;48.694;9.476;2022-10-17T14:55:32;22.70;92.10
50013;DHT22;35901;48.694;9.476;2022-10-17T14:57:59;22.60;92.20
50013;DHT22;35901;48.694;9.476;2022-10-17T15:00:25;22.50;92.70
50013;DHT22;35901;48.694;9.476;2022-10-17T15:02:52;22.40;93.30
50013;DHT22;35901;48.694;9.476;2022-10-17T15:05:18;22.30;93.50
50013;DHT22;35901;48.694;9.476;2022-10-17T15:07:45;22.20;93.50
50013;DHT22;35901;48.694;9.476;2022-10-17T15:10:40;22.10;93.60
50013;DHT22;35901;48.694;9.476;2022-10-17T15:13:07;22.10;93.90
50013;DHT22;35901;48.694;9.476;2022-10-17T15:15:33;22.00;94.10
50013;DHT22;35901;48.694;9.476;2022-10-17T15:17:59;22.00;94.50
50013;DHT22;35901;48.694;9.476;2022-10-17T15:20:26;21.80;95.10
50013;DHT22;35901;48.694;9.476;2022-10-17T15:22:55;21.70;95.30
50013;DHT22;35901;48.694;9.476;2022-10-17T15:25:21;21.60;95.40
50013;DHT22;35901;48.694;9.476;2022-10-17T15:27:47;21.60;96.00
50013;DHT22;35901;48.694;9.476;2022-10-17T15:30:33;21.50;95.90
50013;DHT22;35901;48.694;9.476;2022-10-17T15:33:00;21.50;95.90
50013;DHT22;35901;48.694;9.476;2022-10-17T15:35:26;21.50;95.90
50013;DHT22;35901;48.694;9.476;2022-10-17T15:37:53;21.40;96.00
50013;DHT22;35901;48.694;9.476;2022-10-17T15:40:24;21.40;96.20
50013;DHT22;35901;48.694;9.476;2022-10-17T15:42:50;21.30;96.40
50013;DHT22;35901;48.694;9.476;2022-10-17T15:45:18;21.20;96.50
50013;DHT22;35901;48.694;9.476;2022-10-17T15:47:54;21.20;96.50
50013;DHT22;35901;48.694;9.476;2022-10-17T15:50:21;21.10;96.80
50013;DHT22;35901;48.694;9.476;2022-10-17T15:52:47;21.00;96.90
50013;DHT22;35901;48.694;9.476;2022-10-17T15:55:16;20.80;96.90
50013;DHT22;35901;48.694;9.476;2022-10-17T15:57:43;20.70;97.10
50013;DHT22;35901;48.694;9.476;2022-10-17T16:00:16;20.60;97.10
50013;DHT22;35901;48.694;9.476;2022-10-17T16:02:46;20.40;97.90
50013;DHT22;35901;48.694;9.476;2022-10-17T16:05:23;20.10;99.00
50013;DHT22;35901;48.694;9.476;2022-10-17T16:07:54;19.80;99.20
50013;DHT22;35901;48.694;9.476;2022-10-17T16:10:21;19.60;99.60
50013;DHT22;35901;48.694;9.476;2022-10-17T16:12:47;19.40;99.90
50013;DHT22;35901;48.694;9.476;2022-10-17T16:17:41;19.00;99.90
50013;DHT22;35901;48.694;9.476;2022-10-17T16:20:10;18.80;99.90
50013;DHT22;35901;48.694;9.476;2022-10-17T16:22:36;18.60;99.90
50013;DHT22;35901;48.694;9.476;2022-10-17T16:25:04;18.40;99.90
50013;DHT22;35901;48.694;9.476;2022-10-17T16:27:38;18.40;99.90
50013;DHT22;35901;48.694;9.476;2022-10-17T16:30:06;18.30;99.90
50013;DHT22;35901;48.694;9.476;2022-10-17T16:32:32;17.90;99.90
50013;DHT22;35901;48.694;9.476;2022-10-17T16:34:58;17.60;99.90
50013;DHT22;35901;48.694;9.476;2022-10-17T16:37:25;17.40;99.90
50013;DHT22;35901;48.694;9.476;2022-10-17T16:39:51;17.20;99.90
50013;DHT22;35901;48.694;9.476;2022-10-17T16:42:21;17.10;99.90
50013;DHT22;35901;48.694;9.476;2022-10-17T16:44:50;17.10;99.90
50013;DHT22;35901;48.694;9.476;2022-10-17T16:47:16;17.00;99.90
50013;DHT22;35901;48.694;9.476;2022-10-17T16:49:42;16.80;99.90
50013;DHT22;35901;48.694;9.476;2022-10-17T16:52:08;16.90;99.90
50013;DHT22;35901;48.694;9.476;2022-10-17T16:54:34;16.80;99.90
50013;DHT22;35901;48.694;9.476;2022-10-17T16:57:00;16.80;99.90
50013;DHT22;35901;48.694;9.476;2022-10-17T16:59:26;16.70;99.90
50013;DHT22;35901;48.694;9.476;2022-10-17T17:01:52;16.80;99.90
50013;DHT22;35901;48.694;9.476;2022-10-17T17:04:18;16.70;99.90
50013;DHT22;35901;48.694;9.476;2022-10-17T17:06:44;16.50;99.90
50013;DHT22;35901;48.694;9.476;2022-10-17T17:09:09;16.30;99.90
50013;DHT22;35901;48.694;9.476;2022-10-17T17:11:35;16.00;99.90
50013;DHT22;35901;48.694;9.476;2022-10-17T17:14:03;15.70;99.90
50013;DHT22;35901;48.694;9.476;2022-10-17T17:16:32;15.60;99.90
50013;DHT22;35901;48.694;9.476;2022-10-17T17:19:03;15.60;99.90
50013;DHT22;35901;48.694;9.476;2022-10-17T17:21:30;15.50;99.90
50013;DHT22;35901;48.694;9.476;2022-10-17T17:23:58;15.40;99.90
50013;DHT22;35901;48.694;9.476;2022-10-17T17:26:25;15.40;99.90
50013;DHT22;35901;48.694;9.476;2022-10-17T17:28:52;15.40;99.90
50013;DHT22;35901;48.694;9.476;2022-10-17T17:31:24;15.40;99.90
50013;DHT22;35901;48.694;9.476;2022-10-17T17:33:51;15.40;99.90
50013;DHT22;35901;48.694;9.476;2022-10-17T17:36:22;15.50;99.90
50013;DHT22;35901;48.694;9.476;2022-10-17T17:38:49;15.50;99.90
50013;DHT22;35901;48.694;9.476;2022-10-17T17:41:17;15.40;99.90
50013;DHT22;35901;48.694;9.476;2022-10-17T17:43:44;15.10;99.90
50013;DHT22;35901;48.694;9.476;2022-10-17T17:46:10;14.90;99.90
50013;DHT22;35901;48.694;9.476;2022-10-17T17:48:37;14.80;99.90
50013;DHT22;35901;48.694;9.476;2022-10-17T17:51:04;14.70;99.90
50013;DHT22;35901;48.694;9.476;2022-10-17T17:53:30;14.70;99.90
50013;DHT22;35901;48.694;9.476;2022-10-17T17:56:07;14.60;99.90
50013;DHT22;35901;48.694;9.476;2022-10-17T17:58:34;14.60;99.90
50013;DHT22;35901;48.694;9.476;2022-10-17T18:01:00;14.60;99.90
50013;DHT22;35901;48.694;9.476;2022-10-17T18:03:26;14.60;99.90
50013;DHT22;35901;48.694;9.476;2022-10-17T18:05:52;14.60;99.90
50013;DHT22;35901;48.694;9.476;2022-10-17T18:08:18;14.50;99.90
50013;DHT22;35901;48.694;9.476;2022-10-17T18:10:48;14.40;99.90
50013;DHT22;35901;48.694;9.476;2022-10-17T18:13:14;14.40;99.90
50013;DHT22;35901;48.694;9.476;2022-10-17T18:15:41;14.30;99.90
50013;DHT22;35901;48.694;9.476;2022-10-17T18:18:07;14.30;99.90
50013;DHT22;35901;48.694;9.476;2022-10-17T18:20:33;14.30;99.90
50013;DHT22;35901;48.694;9.476;2022-10-17T18:23:00;14.10;99.90